Time;durP1;ratioP1;P1;durP2;ratioP2;P2;SDS_P1;SDS_P2;PMS_P1;PMS_P2;Temp;Humidity;BMP_temperature;BMP_pressure;BME280_temperature;BME280_humidity;BME280_pressure;Samples;Min_cycle;Max_cycle;Signal;HPM_P1;HPM_P2
2024/04/20 00:00:55;;;;;;;6.22;3.03;;;;;;;11.40;40.62;94149.97;5451053;26;20012;-73
2024/04/20 00:03:21;;;;;;;4.93;3.45;;;;;;;11.41;40.28;94146.75;5479411;26;20005;-73
2024/04/20 00:05:46;;;;;;;4.70;3.17;;;;;;;11.33;40.72;94136.53;5482612;26;19998;-74
2024/04/20 00:08:12;;;;;;;5.90;2.92;;;;;;;11.36;40.84;94143.88;5480472;26;20392;-73
2024/04/20 00:10:37;;;;;;;4.22;2.90;;;;;;;11.39;40.38;94137.44;5481753;26;20008;-73
2024/04/20 00:13:02;;;;;;;5.38;2.80;;;;;;;11.20;40.77;94138.69;5482192;26;19999;-73
2024/04/20 00:15:28;;;;;;;4.03;2.55;;;;;;;11.33;40.66;94133.78;5479240;26;20001;-73
2024/04/20 00:17:53;;;;;;;3.78;2.97;;;;;;;11.34;40.51;94127.81;5482352;26;20043;-73
2024/04/20 00:20:18;;;;;;;2.85;2.33;;;;;;;11.29;40.35;94125.66;5480552;26;20070;-73
2024/04/20 00:22:44;;;;;;;3.40;2.75;;;;;;;11.26;40.56;94126.59;5480476;26;19999;-73
2024/04/20 00:25:09;;;;;;;4.28;2.78;;;;;;;11.31;40.98;94126.00;5479658;26;19999;-72
2024/04/20 00:27:34;;;;;;;3.33;2.67;;;;;;;11.26;40.97;94117.59;5483396;26;20067;-71
2024/04/20 00:30:00;;;;;;;4.25;2.30;;;;;;;11.24;41.05;94123.56;5485282;26;20328;-73
2024/04/20 00:32:25;;;;;;;3.20;2.55;;;;;;;11.29;41.00;94111.91;5484780;26;19998;-72
2024/04/20 00:34:50;;;;;;;3.20;2.58;;;;;;;11.38;40.96;94114.66;5486167;26;20002;-74
2024/04/20 00:37:16;;;;;;;3.00;2.45;;;;;;;11.34;41.48;94119.53;5482440;26;19998;-74
2024/04/20 00:39:41;;;;;;;3.55;2.28;;;;;;;11.32;41.45;94113.75;5484609;26;20000;-74
2024/04/20 00:42:09;;;;;;;3.97;2.35;;;;;;;11.13;41.86;94118.53;5482399;26;20062;-73
2024/04/20 00:44:35;;;;;;;4.43;2.70;;;;;;;11.16;41.75;94117.59;5486318;26;20066;-73
2024/04/20 00:47:03;;;;;;;4.43;2.40;;;;;;;11.27;41.45;94116.34;5485036;26;20437;-73
2024/04/20 00:49:30;;;;;;;3.30;2.30;;;;;;;11.32;41.37;94115.75;5485311;26;20376;-73
2024/04/20 00:51:56;;;;;;;4.18;2.40;;;;;;;11.24;41.56;94120.00;5485719;26;20005;-74
2024/04/20 00:54:21;;;;;;;3.47;2.50;;;;;;;11.22;41.48;94123.22;5482453;26;20416;-72
2024/04/20 00:56:47;;;;;;;3.75;2.47;;;;;;;11.23;41.30;94113.75;5484279;26;20044;-73
2024/04/20 00:59:12;;;;;;;3.65;2.53;;;;;;;11.13;41.50;94123.25;5484129;26;19998;-72
2024/04/20 01:01:38;;;;;;;3.00;2.38;;;;;;;11.05;41.89;94124.78;5485836;26;20360;-73
2024/04/20 01:04:03;;;;;;;4.72;2.47;;;;;;;11.13;41.98;94115.00;5484118;26;19994;-72
2024/04/20 01:06:29;;;;;;;3.13;2.35;;;;;;;11.03;42.57;94122.50;5485637;26;19998;-74
2024/04/20 01:08:56;;;;;;;2.65;1.85;;;;;;;11.08;42.43;94121.13;5485361;26;20337;-74
2024/04/20 01:11:22;;;;;;;2.95;2.17;;;;;;;10.98;43.06;94123.09;5482704;26;20009;-74
2024/04/20 01:14:02;;;;;;;2.72;2.22;;;;;;;10.89;43.20;94121.09;5486179;26;20005;-74
2024/04/20 01:16:28;;;;;;;3.65;2.30;;;;;;;10.90;43.45;94114.41;5482553;26;20009;-73
2024/04/20 01:18:53;;;;;;;3.60;2.38;;;;;;;10.85;43.36;94112.25;5484051;26;19994;-73
2024/04/20 01:21:20;;;;;;;3.00;2.10;;;;;;;10.95;42.95;94120.50;5482325;26;20030;-73
2024/04/20 01:23:53;;;;;;;2.42;1.90;;;;;;;10.99;43.54;94121.88;5482656;26;20033;-73
2024/04/20 01:26:19;;;;;;;3.67;2.30;;;;;;;11.01;43.51;94121.41;5485293;26;20529;-74
2024/04/20 01:28:44;;;;;;;3.40;2.30;;;;;;;10.90;44.46;94119.91;5482221;26;20022;-73
2024/04/20 01:31:10;;;;;;;3.55;2.50;;;;;;;10.88;44.22;94108.59;5485408;26;19995;-72
2024/04/20 01:33:36;;;;;;;2.90;2.13;;;;;;;11.03;44.11;94129.97;5483092;26;20010;-72
2024/04/20 01:36:01;;;;;;;2.83;2.25;;;;;;;10.94;44.58;94124.47;5485100;26;20635;-72
2024/04/20 01:38:27;;;;;;;3.10;2.10;;;;;;;10.89;44.99;94121.09;5483500;26;20006;-72
2024/04/20 01:40:52;;;;;;;4.90;2.40;;;;;;;10.95;44.32;94123.25;5482948;26;20016;-72
2024/04/20 01:43:18;;;;;;;3.53;2.50;;;;;;;11.01;44.31;94121.41;5484817;26;20018;-72
2024/04/20 01:45:43;;;;;;;3.30;2.38;;;;;;;11.00;44.69;94123.41;5483948;26;19990;-73
2024/04/20 01:48:08;;;;;;;3.15;2.40;;;;;;;11.02;44.82;94125.72;5482955;26;20005;-72
2024/04/20 01:50:34;;;;;;;4.90;2.40;;;;;;;11.05;44.89;94130.28;5481159;26;20108;-72
2024/04/20 01:52:59;;;;;;;4.63;2.10;;;;;;;11.07;45.59;94125.09;5484596;26;20006;-72
2024/04/20 01:55:25;;;;;;;3.08;2.30;;;;;;;11.09;45.61;94128.16;5481297;26;20005;-74
2024/04/20 01:57:51;;;;;;;4.22;2.75;;;;;;;11.01;45.72;94126.91;5484832;26;20001;-73
2024/04/20 02:00:17;;;;;;;3.40;2.42;;;;;;;11.04;44.76;94124.03;5483145;26;20611;-73
2024/04/20 02:02:46;;;;;;;4.25;3.55;;;;;;;11.02;43.97;94117.47;5483870;26;20075;-73
2024/04/20 02:05:11;;;;;;;4.65;3.38;;;;;;;11.01;43.58;94124.16;5484769;26;20021;-73
2024/04/20 02:07:37;;;;;;;4.38;3.38;;;;;;;10.99;43.38;94113.63;5482974;26;20377;-73
2024/04/20 02:10:02;;;;;;;4.47;3.67;;;;;;;10.94;43.30;94125.25;5484535;26;20448;-74
2024/04/20 02:12:28;;;;;;;4.65;3.67;;;;;;;10.86;43.75;94119.28;5482624;26;19998;-73
2024/04/20 02:14:53;;;;;;;6.00;3.97;;;;;;;10.78;43.69;94117.28;5482848;26;19998;-73
2024/04/20 02:17:18;;;;;;;5.38;3.70;;;;;;;10.67;43.69;94115.00;5483209;26;20028;-73
2024/04/20 02:19:44;;;;;;;4.55;3.65;;;;;;;10.69;43.67;94117.28;5484428;26;20070;-73
2024/04/20 02:22:09;;;;;;;5.00;3.95;;;;;;;10.67;43.80;94116.97;5483664;26;20095;-73
2024/04/20 02:24:35;;;;;;;6.57;3.80;;;;;;;10.63;44.10;94117.13;5480636;26;19990;-73
2024/04/20 02:27:01;;;;;;;4.40;3.70;;;;;;;10.55;44.01;94113.16;5484202;26;20005;-73
2024/04/20 02:29:26;;;;;;;5.85;4.00;;;;;;;10.58;43.55;94115.75;5482827;26;20013;-73
2024/04/20 02:31:51;;;;;;;4.55;3.42;;;;;;;10.64;43.10;94122.16;5484370;26;19998;-73
2024/04/20 02:34:17;;;;;;;5.68;3.88;;;;;;;10.58;42.91;94110.25;5480821;26;20062;-73
2024/04/20 02:36:42;;;;;;;5.53;3.80;;;;;;;10.51;43.41;94123.53;5482874;26;20014;-73
2024/04/20 02:39:08;;;;;;;4.75;3.60;;;;;;;10.52;43.25;94131.31;5483624;26;20035;-73
2024/04/20 02:41:33;;;;;;;5.28;4.20;;;;;;;10.51;43.58;94129.81;5483576;26;19998;-73
2024/04/20 02:43:58;;;;;;;4.85;3.80;;;;;;;10.50;43.26;94125.53;5484202;26;20333;-73
2024/04/20 02:46:24;;;;;;;5.78;3.22;;;;;;;10.44;43.44;94132.84;5482997;26;19994;-73
2024/04/20 02:48:49;;;;;;;4.10;3.42;;;;;;;10.49;43.10;94140.47;5483766;26;20005;-73
2024/04/20 02:51:14;;;;;;;5.18;3.90;;;;;;;10.55;42.92;94137.88;5481754;26;20005;-73
2024/04/20 02:53:40;;;;;;;4.45;3.70;;;;;;;10.59;42.95;94144.75;5482743;26;20427;-73
2024/04/20 02:56:05;;;;;;;5.10;3.88;;;;;;;10.54;43.16;94141.84;5482489;26;19998;-73
2024/04/20 02:58:31;;;;;;;4.72;3.63;;;;;;;10.59;42.73;94139.25;5483801;26;20000;-73
2024/04/20 03:00:58;;;;;;;6.35;3.45;;;;;;;10.58;42.72;94145.22;5483289;26;19998;-74
2024/04/20 03:03:29;;;;;;;4.15;3.35;;;;;;;10.43;43.13;94139.53;5450761;26;20517;-73
2024/04/20 03:05:54;;;;;;;4.75;3.40;;;;;;;10.41;43.16;94142.00;5484281;26;20009;-73
2024/04/20 03:08:20;;;;;;;4.88;3.83;;;;;;;10.30;43.32;94131.44;5480151;26;20006;-73
2024/04/20 03:10:45;;;;;;;4.22;3.50;;;;;;;10.41;43.02;94132.97;5482303;26;20484;-73
2024/04/20 03:13:12;;;;;;;3.70;2.92;;;;;;;10.44;43.24;94137.59;5479789;26;20000;-73
2024/04/20 03:15:38;;;;;;;8.48;4.28;;;;;;;10.42;42.86;94142.75;5482199;26;20030;-74
2024/04/20 03:18:03;;;;;;;4.78;4.03;;;;;;;10.25;42.86;94137.50;5483088;26;19990;-74
2024/04/20 03:20:29;;;;;;;4.30;3.30;;;;;;;10.29;42.98;94151.88;5482772;26;20016;-75
2024/04/20 03:22:54;;;;;;;6.15;3.97;;;;;;;10.29;43.13;94160.13;5483447;26;20432;-72
2024/04/20 03:25:20;;;;;;;6.55;3.85;;;;;;;10.31;43.07;94162.41;5480596;26;20853;-72
2024/04/20 03:27:46;;;;;;;4.50;3.47;;;;;;;10.36;42.89;94165.31;5451643;26;20005;-72
2024/04/20 03:30:11;;;;;;;4.93;3.58;;;;;;;10.25;43.37;94164.22;5479793;26;19994;-73
2024/04/20 03:32:37;;;;;;;4.30;3.45;;;;;;;10.12;43.46;94172.56;5483421;26;20001;-72
2024/04/20 03:35:04;;;;;;;7.38;3.40;;;;;;;10.20;43.50;94179.28;5482357;26;20002;-72
2024/04/20 03:37:29;;;;;;;6.05;4.07;;;;;;;10.28;43.61;94177.81;5482890;26;20002;-72
2024/04/20 03:39:54;;;;;;;4.10;3.60;;;;;;;10.31;43.83;94178.88;5481513;26;20063;-72
2024/04/20 03:42:20;;;;;;;4.03;3.53;;;;;;;10.33;43.71;94168.22;5481704;26;19990;-72
2024/04/20 03:44:45;;;;;;;4.65;3.70;;;;;;;10.37;43.85;94171.59;5483613;26;20063;-72
2024/04/20 03:47:10;;;;;;;6.22;4.15;;;;;;;10.42;44.11;94176.47;5481052;26;19990;-73
2024/04/20 03:49:36;;;;;;;4.80;4.00;;;;;;;10.42;44.04;94178.47;5483584;26;20438;-72
2024/04/20 03:52:02;;;;;;;7.38;4.18;;;;;;;10.39;44.07;94184.88;5481348;26;19990;-73
2024/04/20 03:54:27;;;;;;;4.70;3.40;;;;;;;10.20;44.70;94178.50;5483195;26;20001;-72
2024/04/20 03:56:52;;;;;;;4.95;4.00;;;;;;;10.13;44.93;94179.56;5482611;26;20001;-72
2024/04/20 03:59:18;;;;;;;5.38;3.88;;;;;;;10.18;45.03;94178.97;5479992;26;20424;-72
2024/04/20 04:01:43;;;;;;;5.78;4.68;;;;;;;10.18;45.17;94178.97;5485939;26;20005;-74
2024/04/20 04:04:09;;;;;;;7.45;4.00;;;;;;;10.26;45.17;94179.47;5484266;26;19998;-73
2024/04/20 04:06:34;;;;;;;4.97;3.83;;;;;;;10.29;45.54;94181.34;5485277;26;19994;-72
2024/04/20 04:09:00;;;;;;;5.93;3.97;;;;;;;10.26;45.77;94193.22;5484498;26;19994;-72
2024/04/20 04:11:25;;;;;;;5.10;4.30;;;;;;;10.33;45.95;94190.97;5454772;26;20398;-72
2024/04/20 04:13:51;;;;;;;6.38;4.65;;;;;;;10.29;46.71;94195.84;5485296;26;20043;-72
2024/04/20 04:16:16;;;;;;;6.25;4.28;;;;;;;10.24;47.02;94188.19;5485870;26;19990;-71
2024/04/20 04:18:42;;;;;;;5.53;4.22;;;;;;;10.24;47.50;94188.19;5486053;26;19994;-72
2024/04/20 04:21:10;;;;;;;8.75;4.00;;;;;;;10.25;47.95;94188.94;5484434;26;20001;-72
2024/04/20 04:23:37;;;;;;;6.15;4.22;;;;;;;10.20;48.40;94195.75;5486204;26;20001;-71
2024/04/20 04:26:03;;;;;;;4.68;3.58;;;;;;;10.23;48.47;94205.88;5481779;26;20067;-72
2024/04/20 04:28:29;;;;;;;4.82;3.90;;;;;;;10.21;48.42;94182.81;5486646;26;20054;-73
2024/04/20 04:30:55;;;;;;;4.85;3.85;;;;;;;10.05;49.52;94192.06;5484656;26;20062;-73
2024/04/20 04:33:20;;;;;;;7.00;3.95;;;;;;;9.84;50.04;94191.66;5484021;26;20001;-73
2024/04/20 04:35:45;;;;;;;5.15;3.53;;;;;;;9.87;49.96;94195.47;5485718;26;19994;-72
2024/04/20 04:38:11;;;;;;;6.93;3.65;;;;;;;9.88;49.73;94190.75;5484928;26;19994;-72
2024/04/20 04:40:36;;;;;;;5.72;4.03;;;;;;;9.96;48.89;94187.28;5486422;26;20005;-72
2024/04/20 04:43:01;;;;;;;4.97;4.00;;;;;;;9.79;49.34;94189.47;5483946;26;19997;-72
2024/04/20 04:45:27;;;;;;;7.03;4.00;;;;;;;9.90;48.85;94191.06;5486735;26;20005;-73
2024/04/20 04:47:52;;;;;;;8.15;4.50;;;;;;;9.77;49.31;94191.16;5484517;26;19993;-73
2024/04/20 04:50:18;;;;;;;5.53;3.75;;;;;;;9.35;48.92;94190.72;5485703;26;19998;-72
2024/04/20 04:52:43;;;;;;;4.15;3.58;;;;;;;9.21;49.40;94189.25;5484469;26;19994;-74
2024/04/20 04:55:09;;;;;;;6.00;4.40;;;;;;;9.11;49.34;94187.66;5485188;26;20702;-74
2024/04/20 04:57:34;;;;;;;6.35;4.20;;;;;;;9.23;49.59;94182.13;5485532;26;19994;-74
2024/04/20 04:59:59;;;;;;;6.35;4.03;;;;;;;9.23;48.99;94190.38;5484074;26;19996;-74
2024/04/20 05:02:25;;;;;;;7.05;4.53;;;;;;;9.13;49.22;94196.22;5485667;26;20042;-73
2024/04/20 05:04:50;;;;;;;5.78;4.45;;;;;;;9.16;49.50;94201.56;5482961;26;20035;-74
2024/04/20 05:07:16;;;;;;;7.43;4.13;;;;;;;9.24;49.26;94199.34;5483753;26;19994;-74
2024/04/20 05:09:41;;;;;;;5.63;4.63;;;;;;;9.30;49.41;94205.81;5483956;26;20436;-74
2024/04/20 05:12:06;;;;;;;5.93;4.20;;;;;;;9.26;48.77;94196.94;5484157;26;20005;-74
2024/04/20 05:14:32;;;;;;;6.05;4.03;;;;;;;9.34;47.71;94189.19;5485107;26;20369;-74
2024/04/20 05:16:58;;;;;;;8.93;4.40;;;;;;;9.36;47.79;94193.03;5484398;26;19994;-73
2024/04/20 05:19:23;;;;;;;5.80;4.40;;;;;;;9.44;47.80;94183.34;5485463;26;20030;-73
2024/04/20 05:21:49;;;;;;;6.25;4.30;;;;;;;9.40;48.23;94190.16;5483502;26;19994;-74
2024/04/20 05:24:14;;;;;;;7.63;4.97;;;;;;;9.45;47.96;94198.56;5483260;26;20338;-73
2024/04/20 05:26:40;;;;;;;5.85;4.55;;;;;;;9.51;48.33;94194.03;5483491;26;19995;-74
2024/04/20 05:29:05;;;;;;;5.72;4.25;;;;;;;9.61;47.80;94192.13;5485130;26;19990;-73
2024/04/20 05:31:30;;;;;;;6.65;4.43;;;;;;;9.53;47.59;94185.38;5483876;26;19997;-74
2024/04/20 05:33:56;;;;;;;7.13;4.75;;;;;;;9.58;47.93;94182.06;5484654;26;20058;-74
2024/04/20 05:36:21;;;;;;;6.00;4.65;;;;;;;9.67;47.01;94181.34;5483135;26;19990;-74
2024/04/20 05:38:46;;;;;;;5.85;4.63;;;;;;;9.73;46.63;94185.78;5483890;26;19998;-73
2024/04/20 05:41:12;;;;;;;5.45;3.88;;;;;;;9.75;46.20;94188.88;5485651;26;19994;-73
2024/04/20 05:43:37;;;;;;;5.65;4.28;;;;;;;9.77;46.05;94180.94;5483651;26;20437;-73
2024/04/20 05:46:03;;;;;;;6.53;4.10;;;;;;;9.76;45.67;94184.91;5485744;26;19990;-74
2024/04/20 05:48:29;;;;;;;6.43;4.72;;;;;;;9.73;45.97;94172.06;5483999;26;19994;-74
2024/04/20 05:50:54;;;;;;;6.78;4.38;;;;;;;9.88;46.75;94177.03;5484843;26;20002;-73
2024/04/20 05:53:20;;;;;;;6.68;4.55;;;;;;;9.91;46.77;94168.63;5452212;26;20314;-74
2024/04/20 05:55:45;;;;;;;6.35;4.55;;;;;;;10.12;45.98;94158.81;5482382;26;20444;-74
2024/04/20 05:58:12;;;;;;;6.72;4.88;;;;;;;10.25;45.83;94164.22;5484630;26;19994;-73
2024/04/20 06:00:37;;;;;;;6.40;5.15;;;;;;;10.11;45.84;94168.28;5483187;26;20070;-73
2024/04/20 06:03:03;;;;;;;7.15;4.40;;;;;;;10.27;45.87;94165.31;5483542;26;20002;-74
2024/04/20 06:05:28;;;;;;;5.20;4.60;;;;;;;10.41;45.46;94168.69;5482876;26;20008;-73
2024/04/20 06:07:53;;;;;;;5.78;4.55;;;;;;;10.33;44.84;94171.75;5484845;26;19994;-75
2024/04/20 06:10:19;;;;;;;6.38;4.63;;;;;;;10.24;45.17;94168.19;5483063;26;19990;-74
2024/04/20 06:12:44;;;;;;;8.50;5.05;;;;;;;10.33;44.69;94170.97;5482450;26;19994;-74
2024/04/20 06:15:09;;;;;;;7.28;4.25;;;;;;;10.21;44.96;94158.09;5483998;26;20026;-74
2024/04/20 06:17:35;;;;;;;6.57;4.90;;;;;;;10.36;44.83;94159.06;5483315;26;20001;-74
2024/04/20 06:20:00;;;;;;;5.80;4.57;;;;;;;10.35;45.00;94163.81;5484700;26;19990;-74
2024/04/20 06:22:26;;;;;;;5.20;4.18;;;;;;;10.50;44.98;94165.97;5482487;26;20006;-74
2024/04/20 06:24:54;;;;;;;7.30;4.82;;;;;;;10.52;44.77;94172.53;5482487;26;19994;-73
2024/04/20 06:27:20;;;;;;;11.10;4.70;;;;;;;10.61;45.07;94177.31;5481084;26;19998;-73
2024/04/20 06:29:46;;;;;;;5.53;4.15;;;;;;;10.60;44.24;94176.53;5482829;26;20324;-74
2024/04/20 06:32:11;;;;;;;6.78;4.70;;;;;;;10.71;43.93;94178.06;5483656;26;19998;-73
2024/04/20 06:34:36;;;;;;;14.00;5.07;;;;;;;10.81;44.33;94177.63;5481607;26;20008;-74
2024/04/20 06:37:02;;;;;;;7.03;4.72;;;;;;;10.89;44.69;94178.84;5482773;26;20010;-73
2024/04/20 06:39:27;;;;;;;7.38;4.85;;;;;;;10.83;44.06;94175.19;5482159;26;20006;-74
2024/04/20 06:41:54;;;;;;;7.55;5.28;;;;;;;10.92;44.42;94179.19;5484710;26;19998;-74
2024/04/20 06:44:23;;;;;;;6.45;4.80;;;;;;;11.04;44.18;94170.78;5480353;26;20006;-76
2024/04/20 06:46:49;;;;;;;7.10;5.07;;;;;;;11.01;44.06;94176.41;5484409;26;20034;-72
2024/04/20 06:49:15;;;;;;;7.80;4.80;;;;;;;11.20;43.27;94182.69;5481426;26;20547;-72
2024/04/20 06:51:41;;;;;;;6.05;4.75;;;;;;;11.17;42.88;94181.63;5483502;26;20062;-74
2024/04/20 06:54:06;;;;;;;5.82;4.40;;;;;;;11.40;42.53;94178.25;5484164;26;19998;-74
2024/04/20 06:56:32;;;;;;;5.70;4.25;;;;;;;11.48;42.66;94184.22;5480862;26;20013;-74
2024/04/20 06:58:58;;;;;;;7.72;4.35;;;;;;;11.44;42.23;94178.09;5483960;26;20119;-74
2024/04/20 07:01:24;;;;;;;4.80;4.18;;;;;;;11.58;41.76;94180.19;5481762;26;19994;-73
2024/04/20 07:03:49;;;;;;;5.68;4.40;;;;;;;11.71;41.81;94180.03;5482345;26;19998;-73
2024/04/20 07:06:14;;;;;;;6.90;5.35;;;;;;;12.04;41.39;94177.34;5482108;26;20024;-74
2024/04/20 07:08:40;;;;;;;11.05;5.00;;;;;;;11.98;41.29;94170.94;5483832;26;20002;-74
2024/04/20 07:11:05;;;;;;;5.03;4.13;;;;;;;12.01;40.77;94186.56;5481275;26;20005;-73
2024/04/20 07:13:35;;;;;;;6.25;4.03;;;;;;;12.14;40.58;94183.59;5482235;26;19994;-74
2024/04/20 07:16:01;;;;;;;5.70;4.30;;;;;;;12.10;40.00;94177.50;5484095;26;20042;-74
2024/04/20 07:18:27;;;;;;;5.03;3.80;;;;;;;12.15;40.01;94188.66;5479762;26;20408;-75
2024/04/20 07:20:53;;;;;;;6.63;4.40;;;;;;;12.38;39.68;94189.16;5483903;26;19998;-73
2024/04/20 07:23:19;;;;;;;5.78;3.55;;;;;;;12.38;39.52;94189.94;5479551;26;20030;-73
2024/04/20 07:25:44;;;;;;;7.10;4.40;;;;;;;12.58;39.58;94183.09;5483109;26;20404;-74
2024/04/20 07:28:10;;;;;;;5.07;3.70;;;;;;;12.60;39.28;94191.66;5480972;26;20055;-72
2024/04/20 07:30:35;;;;;;;6.57;4.30;;;;;;;12.69;39.04;94183.34;5481096;26;20084;-74
2024/04/20 07:33:01;;;;;;;6.32;4.10;;;;;;;12.76;39.21;94192.03;5483367;26;20402;-74
2024/04/20 07:35:26;;;;;;;8.85;4.43;;;;;;;12.79;38.64;94192.31;5481523;26;20002;-74
2024/04/20 07:37:52;;;;;;;5.32;3.85;;;;;;;12.98;38.68;94194.50;5484009;26;19994;-73
2024/04/20 07:40:17;;;;;;;8.43;4.07;;;;;;;13.06;38.75;94188.63;5479796;26;20028;-73
2024/04/20 07:42:42;;;;;;;4.85;4.15;;;;;;;13.21;38.71;94190.22;5481975;26;20030;-74
2024/04/20 07:45:08;;;;;;;6.88;4.30;;;;;;;13.20;38.56;94180.41;5480400;26;20397;-73
2024/04/20 07:47:33;;;;;;;6.35;4.20;;;;;;;13.37;38.34;94180.00;5482848;26;19990;-72
2024/04/20 07:49:58;;;;;;;4.88;3.85;;;;;;;13.45;38.01;94187.41;5481446;26;19990;-74
2024/04/20 07:52:24;;;;;;;5.40;4.00;;;;;;;13.37;37.68;94182.75;5481784;26;20316;-74
2024/04/20 07:54:49;;;;;;;5.40;3.53;;;;;;;13.49;37.79;94182.47;5483520;26;20001;-73
2024/04/20 07:57:16;;;;;;;5.03;4.00;;;;;;;13.57;37.43;94190.38;5479590;26;20386;-73
2024/04/20 07:59:42;;;;;;;7.45;3.70;;;;;;;13.69;36.97;94181.81;5483723;26;19990;-73
2024/04/20 08:02:07;;;;;;;6.40;3.58;;;;;;;13.84;37.17;94181.84;5482076;26;20334;-74
2024/04/20 08:04:33;;;;;;;4.13;3.20;;;;;;;14.00;36.38;94183.38;5481029;26;19998;-73
2024/04/20 08:06:58;;;;;;;6.40;3.50;;;;;;;13.99;36.04;94182.63;5482618;26;20022;-71
2024/04/20 08:09:23;;;;;;;5.25;4.00;;;;;;;14.03;35.79;94185.16;5482248;26;20005;-73
2024/04/20 08:11:49;;;;;;;4.25;3.30;;;;;;;14.33;35.32;94177.59;5483238;26;20306;-72
2024/04/20 08:14:14;;;;;;;5.45;3.63;;;;;;;14.34;35.83;94177.13;5481281;26;20006;-72
2024/04/20 08:16:40;;;;;;;4.95;3.53;;;;;;;14.52;35.35;94178.94;5483561;26;19990;-80
2024/04/20 08:19:05;;;;;;;5.35;3.65;;;;;;;14.54;34.93;94173.69;5449023;26;19994;-80
2024/04/20 08:21:31;;;;;;;5.47;3.22;;;;;;;14.50;35.41;94177.88;5480999;26;20011;-80
2024/04/20 08:23:56;;;;;;;5.22;3.60;;;;;;;14.59;35.11;94180.53;5479051;26;19994;-80
2024/04/20 08:26:21;;;;;;;4.85;3.50;;;;;;;14.71;34.82;94173.16;5480058;26;20426;-73
2024/04/20 08:28:47;;;;;;;4.47;3.35;;;;;;;14.92;34.87;94177.47;5480792;26;20006;-73
2024/04/20 08:31:12;;;;;;;7.43;3.70;;;;;;;15.13;34.96;94173.44;5481161;26;20013;-73
2024/04/20 08:33:37;;;;;;;5.50;3.25;;;;;;;15.06;33.60;94171.09;5482844;26;20410;-73
2024/04/20 08:36:03;;;;;;;5.60;3.60;;;;;;;14.98;33.80;94170.00;5480648;26;20074;-73
2024/04/20 08:38:28;;;;;;;4.47;3.70;;;;;;;14.80;33.93;94173.81;5480734;26;20024;-73
2024/04/20 08:41:00;;;;;;;4.45;3.33;;;;;;;14.95;34.24;94176.50;5478943;26;19998;-72
2024/04/20 08:43:28;;;;;;;4.65;3.28;;;;;;;15.06;34.23;94171.09;5482099;26;20455;-73
2024/04/20 08:45:56;;;;;;;5.10;3.60;;;;;;;15.30;33.72;94167.34;5479776;26;19994;-73
2024/04/20 08:48:23;;;;;;;5.97;4.00;;;;;;;15.42;33.88;94177.31;5483276;26;20002;-72
2024/04/20 08:50:49;;;;;;;5.32;3.97;;;;;;;15.53;34.12;94171.88;5485793;26;20005;-73
2024/04/20 08:53:16;;;;;;;4.70;3.72;;;;;;;15.75;33.34;94168.63;5483625;26;19989;-73
2024/04/20 08:55:41;;;;;;;4.55;3.58;;;;;;;16.01;33.06;94162.31;5484130;26;20017;-74
2024/04/20 08:58:07;;;;;;;4.70;3.30;;;;;;;16.10;32.92;94168.44;5482338;26;19990;-73
2024/04/20 09:00:35;;;;;;;8.68;3.80;;;;;;;16.20;32.89;94167.00;5485423;26;19990;-73
2024/04/20 09:03:02;;;;;;;3.92;3.28;;;;;;;16.33;31.86;94158.28;5484678;26;19990;-72
2024/04/20 09:05:32;;;;;;;4.97;2.95;;;;;;;16.26;32.59;94164.28;5484713;26;19990;-72
2024/04/20 09:07:57;;;;;;;3.90;3.10;;;;;;;16.56;32.19;94155.66;5484146;26;20023;-72
2024/04/20 09:10:23;;;;;;;3.53;2.95;;;;;;;16.74;31.25;94155.28;5481523;26;20058;-72
2024/04/20 09:12:49;;;;;;;4.18;3.03;;;;;;;16.85;31.33;94162.91;5485502;26;20339;-72
2024/04/20 09:15:15;;;;;;;4.40;3.22;;;;;;;16.86;31.73;94162.44;5483273;26;20043;-72
2024/04/20 09:17:41;;;;;;;5.93;2.90;;;;;;;16.95;31.47;94165.00;5485481;26;20030;-71
2024/04/20 09:20:07;;;;;;;6.18;3.20;;;;;;;16.67;30.68;94169.59;5483914;26;19998;-72
2024/04/20 09:22:33;;;;;;;5.90;3.25;;;;;;;17.02;30.35;94160.22;5484702;26;19997;-71
2024/04/20 09:25:05;;;;;;;3.40;2.70;;;;;;;17.39;29.59;94160.16;5484077;26;19990;-72
2024/04/20 09:27:31;;;;;;;5.85;3.60;;;;;;;17.49;29.97;94161.41;5481443;26;20005;-72
2024/04/20 09:30:03;;;;;;;6.22;3.40;;;;;;;17.66;29.45;94162.25;5483433;26;20002;-72
2024/04/20 09:32:30;;;;;;;8.88;3.03;;;;;;;17.75;28.29;94142.56;5482806;26;20010;-72
2024/04/20 09:34:56;;;;;;;5.35;3.13;;;;;;;17.93;27.75;94155.22;5485208;26;19994;-72
2024/04/20 09:37:21;;;;;;;6.93;2.92;;;;;;;18.14;27.41;94152.22;5483574;26;20329;-73
2024/04/20 09:39:47;;;;;;;8.57;3.45;;;;;;;18.31;26.91;94147.41;5484517;26;20047;-73
2024/04/20 09:42:16;;;;;;;6.60;2.65;;;;;;;18.38;26.90;94155.25;5484049;26;20070;-74
2024/04/20 09:44:43;;;;;;;3.22;2.15;;;;;;;18.41;26.45;94156.25;5481952;26;20024;-73
2024/04/20 09:47:11;;;;;;;3.88;2.03;;;;;;;18.76;26.30;94148.16;5483567;26;20053;-73
2024/04/20 09:49:38;;;;;;;4.97;2.10;;;;;;;18.91;26.40;94156.19;5482520;26;19994;-73
2024/04/20 09:52:13;;;;;;;4.88;2.80;;;;;;;19.10;26.00;94151.59;5484062;26;20463;-74
2024/04/20 09:54:46;;;;;;;5.45;2.67;;;;;;;19.27;25.66;94153.56;5483748;26;20006;-74
2024/04/20 09:57:12;;;;;;;2.53;2.00;;;;;;;19.61;24.84;94148.59;5483033;26;19998;-74
2024/04/20 09:59:38;;;;;;;2.63;1.90;;;;;;;19.65;25.39;94135.16;5483276;26;20006;-72
2024/04/20 10:02:04;;;;;;;2.92;2.10;;;;;;;20.04;25.79;94143.28;5481782;26;20066;-71
2024/04/20 10:04:30;;;;;;;3.20;2.33;;;;;;;20.35;25.34;94142.00;5483508;26;20030;-73
2024/04/20 10:06:56;;;;;;;3.28;2.15;;;;;;;20.74;25.66;94134.59;5481926;26;20399;-73
2024/04/20 10:09:21;;;;;;;4.10;2.47;;;;;;;21.09;25.09;94130.91;5483505;26;20030;-73
2024/04/20 10:11:47;;;;;;;4.45;3.17;;;;;;;21.21;24.83;94123.91;5483904;26;19990;-74
2024/04/20 10:14:14;;;;;;;6.28;2.72;;;;;;;21.56;24.20;94127.81;5484688;26;20456;-72
2024/04/20 10:16:40;;;;;;;3.60;2.50;;;;;;;21.85;24.21;94114.97;5480479;26;20005;-73
2024/04/20 10:19:05;;;;;;;5.95;2.22;;;;;;;21.96;23.75;94110.00;5479819;26;20002;-73
2024/04/20 10:21:31;;;;;;;5.72;2.63;;;;;;;21.97;23.79;94122.69;5482786;26;20027;-71
2024/04/20 10:23:57;;;;;;;2.70;2.30;;;;;;;21.34;23.42;94118.47;5480952;26;20437;-74
2024/04/20 10:26:30;;;;;;;2.47;2.25;;;;;;;21.32;24.21;94112.63;5481277;26;20002;-73
2024/04/20 10:29:09;;;;;;;2.95;2.30;;;;;;;21.16;24.31;94108.75;5481745;26;20001;-73
2024/04/20 10:31:35;;;;;;;3.30;2.42;;;;;;;21.16;24.75;94111.53;5483475;26;20013;-71
2024/04/20 10:34:00;;;;;;;3.78;2.40;;;;;;;21.11;24.38;94111.59;5484291;26;20527;-72
2024/04/20 10:36:26;;;;;;;4.60;3.03;;;;;;;21.39;23.87;94117.66;5481139;26;20009;-71
2024/04/20 10:39:02;;;;;;;3.20;2.30;;;;;;;21.57;24.08;94116.13;5485258;26;19994;-72
2024/04/20 10:41:37;;;;;;;2.50;1.77;;;;;;;21.26;23.70;94111.91;5482693;26;19998;-72
2024/04/20 10:44:15;;;;;;;2.80;1.88;;;;;;;21.04;23.89;94101.75;5484936;26;20009;-71
2024/04/20 10:46:47;;;;;;;2.50;1.63;;;;;;;21.19;23.67;94102.09;5482277;26;20066;-73
2024/04/20 10:49:14;;;;;;;3.30;1.60;;;;;;;21.59;23.33;94096.78;5483270;26;20039;-72
2024/04/20 10:51:57;;;;;;;3.45;2.22;;;;;;;21.51;23.54;94098.69;5482468;26;19998;-72
2024/04/20 10:54:23;;;;;;;3.90;2.00;;;;;;;21.53;23.61;94098.91;5480746;26;20004;-72
2024/04/20 10:56:52;;;;;;;7.55;2.50;;;;;;;21.34;23.69;94098.16;5482645;26;19998;-71
2024/04/20 10:59:18;;;;;;;3.50;2.17;;;;;;;20.87;23.91;94101.97;5483188;26;20479;-73
2024/04/20 11:01:43;;;;;;;6.50;3.08;;;;;;;20.93;24.28;94082.31;5483865;26;20079;-73
2024/04/20 11:04:09;;;;;;;3.05;2.20;;;;;;;20.98;24.26;94089.88;5483612;26;19994;-72
2024/04/20 11:06:35;;;;;;;3.65;2.20;;;;;;;20.88;23.85;94097.13;5482479;26;20006;-71
2024/04/20 11:09:09;;;;;;;2.80;2.00;;;;;;;20.49;23.95;94089.16;5484212;26;19991;-72
2024/04/20 11:11:34;;;;;;;3.70;2.08;;;;;;;20.72;23.90;94090.44;5479281;26;19994;-72
2024/04/20 11:14:00;;;;;;;6.30;3.42;;;;;;;20.73;24.14;94089.16;5484013;26;20018;-72
2024/04/20 11:16:29;;;;;;;21.00;4.95;;;;;;;20.45;24.42;94083.06;5482320;26;20065;-72
2024/04/20 11:18:55;;;;;;;25.42;5.40;;;;;;;20.43;23.78;94089.94;5483450;26;20016;-72
2024/04/20 11:21:20;;;;;;;5.60;2.03;;;;;;;20.11;23.82;94088.94;5483627;26;20447;-72
2024/04/20 11:23:46;;;;;;;5.03;1.83;;;;;;;20.01;23.90;94087.75;5482216;26;20005;-72
2024/04/20 11:26:12;;;;;;;3.75;1.88;;;;;;;19.93;24.36;94090.38;5482092;26;20035;-72
2024/04/20 11:28:38;;;;;;;3.38;2.05;;;;;;;19.75;24.97;94091.75;5481821;26;20006;-72